Nearby METAR Reports

 

NZWN - Wellington Intl, New Zealand
Distance from station: E 68km
Updated: 26/09/2017 14:00
Mostly cloudy
Mostly cloudy
 Wind from NNW
Wind: NNW 41 km/h, Gust: 67 km/h
Temperature: 15°C
Dew Point: 12°C
Humidity: 82%
Barometer: 1000 hPa
Clouds: Mostly cloudy
Visibility: 10 km
Cloud details: Mostly cloudy 457 m
2017/09/26 01:00 NZWN 260100Z AUTO 33022G36KT 9999 BKN015/// 15/12 Q1000 TEMPO 6000 RA BKN012
NZCH - Christchurch Int, New Zealand
Distance from station: SSW 269km
Updated: 26/09/2017 14:30
Clear
Clear
 Wind from NW
Wind: NW 26 km/h
Temperature: 15°C
Dew Point: 7°C
Humidity: 59%
Barometer: 995 hPa
Clouds: Clear
Visibility: 10 km
2017/09/26 01:30 NZCH 260130Z AUTO 32014KT 9999 NCD 15/07 Q0995 NOSIG
 
NZAA - Auckland Intl Ar, New Zealand
Distance from station: N 480km
Updated: 26/09/2017 14:30
Light rain, Mostly cloudy
Light rain, Mostly cloudy
 Wind from NW
Wind: NW 37 km/h, Gust: 57 km/h
Temperature: 19°C
Dew Point: 13°C
Humidity: 68%
Barometer: 1011 hPa
Summary: Light rain
Clouds: Mostly cloudy
Visibility: 10 km
Cloud details: Mostly cloudy 1006 m
Mostly cloudy 1981 m
2017/09/26 01:30 NZAA 260130Z AUTO 32020G31KT 9999 -RA BKN033/// BKN065/// 19/13 Q1011 NOSIG